createdAt,value
2023-05-10T00:01:33.824Z,63.36
2023-05-10T00:04:36.267Z,63.47
2023-05-10T00:07:41.832Z,64.56
2023-05-10T00:10:44.166Z,64.66
2023-05-10T00:13:46.638Z,64.66
2023-05-10T00:16:49.209Z,65.28
2023-05-10T00:19:52.780Z,64.94
2023-05-10T00:22:55.029Z,65.29
2023-05-10T00:25:57.416Z,65.68
2023-05-10T00:28:59.768Z,65.77
2023-05-10T00:32:02.120Z,66.44
2023-05-10T00:35:04.810Z,66.10
2023-05-10T00:38:07.897Z,67.12
2023-05-10T00:41:10.162Z,67.27
2023-05-10T00:44:14.757Z,67.72
2023-05-10T00:47:18.048Z,67.27
2023-05-10T00:50:20.454Z,67.96
2023-05-10T00:53:23.017Z,67.82
2023-05-10T00:56:26.604Z,68.01
2023-05-10T00:59:29.830Z,68.31
2023-05-10T01:02:32.172Z,69.31
2023-05-10T01:05:34.455Z,69.33
2023-05-10T01:08:37.577Z,69.47
2023-05-10T01:11:41.174Z,70.34
2023-05-10T01:14:44.151Z,69.69
2023-05-10T01:17:48.492Z,70.30
2023-05-10T01:21:05.746Z,70.29
2023-05-10T01:24:23.210Z,70.28
2023-05-10T01:28:02.747Z,70.80
2023-05-10T01:31:19.463Z,70.74
2023-05-10T01:34:26.667Z,70.24
2023-05-10T01:37:38.536Z,69.72
2023-05-10T01:41:10.086Z,69.57
2023-05-10T01:44:15.393Z,69.92
2023-05-10T01:47:36.045Z,69.79
2023-05-10T01:50:44.842Z,70.07
2023-05-10T01:53:49.829Z,69.90
2023-05-10T01:57:06.645Z,70.37
2023-05-10T02:00:10.581Z,69.80
2023-05-10T02:03:21.686Z,69.47
2023-05-10T02:06:26.234Z,69.59
2023-05-10T02:09:31.830Z,69.04
2023-05-10T02:12:39.150Z,69.46
2023-05-10T02:15:42.686Z,68.61
2023-05-10T02:18:45.839Z,68.68
2023-05-10T02:21:48.941Z,68.41
2023-05-10T02:24:52.083Z,67.72
2023-05-10T02:27:57.879Z,68.03
2023-05-10T02:31:00.844Z,66.99
2023-05-10T02:34:05.158Z,67.24
2023-05-10T02:37:08.146Z,67.24
2023-05-10T02:40:12.614Z,67.01
2023-05-10T02:43:19.553Z,67.06
2023-05-10T02:46:22.037Z,66.67
2023-05-10T02:49:24.396Z,66.90
2023-05-10T02:52:37.557Z,66.58
2023-05-10T02:55:43.134Z,66.12
2023-05-10T02:58:45.407Z,65.79
2023-05-10T03:01:47.976Z,65.92
2023-05-10T03:04:50.665Z,65.45
2023-05-10T03:07:53.676Z,64.84
2023-05-10T03:11:28.030Z,65.39
2023-05-10T03:14:42.512Z,64.61
2023-05-10T03:17:44.727Z,64.13
2023-05-10T03:20:56.595Z,64.99
2023-05-10T03:24:06.446Z,65.42
2023-05-10T03:27:09.668Z,65.61
2023-05-10T03:30:13.715Z,65.46
2023-05-10T03:33:16.289Z,65.28
2023-05-10T03:36:21.563Z,65.21
2023-05-10T03:39:24.146Z,66.08
2023-05-10T03:42:30.550Z,64.56
2023-05-10T03:45:32.942Z,64.64
2023-05-10T03:48:35.947Z,65.11
2023-05-10T03:51:38.257Z,64.46
2023-05-10T03:54:40.594Z,64.80
2023-05-10T03:57:43.456Z,65.03
2023-05-10T04:00:46.509Z,64.82
2023-05-10T04:03:50.318Z,66.66
2023-05-10T04:06:52.685Z,67.39
2023-05-10T04:09:55.455Z,67.87
2023-05-10T04:12:58.578Z,68.65
2023-05-10T04:16:01.207Z,68.88
2023-05-10T04:19:03.812Z,69.25
2023-05-10T04:22:06.279Z,69.60
2023-05-10T04:25:09.182Z,69.36
2023-05-10T04:28:11.391Z,68.40
2023-05-10T04:31:13.873Z,67.22
2023-05-10T04:34:16.171Z,65.70
2023-05-10T04:37:19.186Z,65.62
2023-05-10T04:40:21.772Z,65.66
2023-05-10T04:43:24.048Z,66.27
2023-05-10T04:46:26.356Z,65.90
2023-05-10T04:49:29.109Z,66.27
2023-05-10T04:52:31.634Z,67.34
2023-05-10T04:55:33.945Z,67.34
2023-05-10T04:58:36.296Z,64.80
2023-05-10T05:01:38.649Z,62.94
2023-05-10T05:04:40.942Z,62.00
2023-05-10T05:07:43.264Z,62.50
2023-05-10T05:10:45.586Z,62.09
2023-05-10T05:13:48.083Z,61.48
2023-05-10T05:16:50.403Z,60.17
2023-05-10T05:19:52.739Z,59.47
2023-05-10T05:22:54.994Z,58.87
2023-05-10T05:25:57.400Z,60.32
2023-05-10T05:28:59.727Z,62.60
2023-05-10T05:32:02.452Z,62.30
2023-05-10T05:35:05.609Z,62.13
2023-05-10T05:38:07.933Z,61.71
2023-05-10T05:41:10.297Z,57.80
2023-05-10T05:44:12.618Z,53.62
2023-05-10T05:47:15.066Z,55.91
2023-05-10T05:50:17.427Z,53.97
2023-05-10T05:53:19.696Z,53.99
2023-05-10T05:56:25.414Z,50.18
2023-05-10T05:59:28.219Z,52.97
2023-05-10T06:02:30.702Z,53.92
2023-05-10T06:05:33.394Z,53.96
2023-05-10T06:08:35.746Z,56.12
2023-05-10T06:11:38.311Z,52.46
2023-05-10T06:14:40.583Z,52.97
2023-05-10T06:17:44.421Z,52.35
2023-05-10T06:20:46.707Z,55.04
2023-05-10T06:23:49.357Z,50.41
2023-05-10T06:26:52.183Z,48.35
2023-05-10T06:30:02.121Z,50.33
2023-05-10T06:33:12.091Z,47.87
2023-05-10T06:36:14.472Z,40.24
2023-05-10T06:39:17.102Z,49.57
2023-05-10T06:42:19.383Z,53.75
2023-05-10T06:45:22.956Z,54.52
2023-05-10T06:48:25.195Z,55.35
2023-05-10T06:51:27.714Z,54.75
2023-05-10T06:54:30.063Z,49.34
2023-05-10T06:57:33.297Z,46.82
2023-05-10T07:00:35.772Z,43.37
2023-05-10T07:03:38.102Z,47.83
2023-05-10T07:06:40.586Z,44.98
2023-05-10T07:09:45.353Z,48.06
2023-05-10T07:12:47.937Z,49.63
2023-05-10T07:15:53.218Z,45.71
2023-05-10T07:18:55.636Z,49.40
2023-05-10T07:21:58.080Z,51.53
2023-05-10T07:25:00.936Z,52.02
2023-05-10T07:28:03.219Z,50.45
2023-05-10T07:31:05.546Z,47.23
2023-05-10T07:34:07.904Z,43.92
2023-05-10T07:37:10.264Z,41.27
2023-05-10T07:40:12.693Z,38.73
2023-05-10T07:43:17.963Z,42.97
2023-05-10T07:46:20.809Z,47.17
2023-05-10T07:49:25.237Z,49.82
2023-05-10T07:52:27.514Z,51.09
2023-05-10T07:55:29.795Z,52.09
2023-05-10T07:58:32.666Z,50.01
2023-05-10T08:01:35.970Z,47.31
2023-05-10T08:04:38.400Z,46.42
2023-05-10T08:07:41.384Z,48.44
2023-05-10T08:10:43.871Z,52.47
2023-05-10T08:13:46.761Z,53.41
2023-05-10T08:16:49.101Z,48.49
2023-05-10T08:19:51.419Z,50.16
2023-05-10T08:22:59.245Z,49.78
2023-05-10T08:26:01.726Z,49.31
2023-05-10T08:29:04.097Z,47.88
2023-05-10T08:32:06.464Z,51.49
2023-05-10T08:35:08.799Z,52.68
2023-05-10T08:38:11.237Z,52.67
2023-05-10T08:41:14.524Z,50.23
2023-05-10T08:44:17.726Z,49.07
2023-05-10T08:47:23.256Z,50.75
2023-05-10T08:50:26.589Z,47.17
2023-05-10T08:53:36.456Z,46.16
2023-05-10T08:56:38.794Z,49.21
2023-05-10T08:59:41.177Z,49.58
2023-05-10T09:02:45.298Z,46.14
2023-05-10T09:05:48.038Z,48.31
2023-05-10T09:08:51.241Z,44.78
2023-05-10T09:11:54.896Z,44.80
2023-05-10T09:15:02.944Z,50.00
2023-05-10T09:18:06.176Z,49.53
2023-05-10T09:21:09.453Z,50.28
2023-05-10T09:24:13.033Z,49.03
2023-05-10T09:27:15.401Z,46.46
2023-05-10T09:30:29.178Z,45.48
2023-05-10T09:33:45.627Z,41.46
2023-05-10T09:36:55.832Z,40.64
2023-05-10T09:39:58.122Z,45.19
2023-05-10T09:43:11.893Z,45.58
2023-05-10T09:46:14.907Z,44.08
2023-05-10T09:49:17.341Z,46.07
2023-05-10T09:52:19.679Z,46.19
2023-05-10T09:55:24.647Z,46.37
2023-05-10T09:58:27.256Z,43.53
2023-05-10T10:01:30.637Z,41.03
2023-05-10T10:04:33.862Z,42.49
2023-05-10T10:07:36.912Z,44.44
2023-05-10T10:10:42.568Z,46.04
2023-05-10T10:13:45.216Z,46.08
2023-05-10T10:16:59.859Z,44.84
2023-05-10T10:20:12.318Z,45.15
2023-05-10T10:23:17.365Z,43.73
2023-05-10T10:26:20.965Z,45.17
2023-05-10T10:29:37.935Z,44.67
2023-05-10T10:33:20.212Z,42.60
2023-05-10T10:36:29.612Z,43.86
2023-05-10T10:39:32.299Z,43.48
2023-05-10T10:42:52.657Z,44.82
2023-05-10T10:46:18.437Z,44.53
2023-05-10T10:49:22.328Z,44.44
2023-05-10T10:52:34.058Z,44.99
2023-05-10T10:55:49.464Z,44.60
2023-05-10T10:58:53.573Z,43.10
2023-05-10T11:01:55.810Z,42.97
2023-05-10T11:04:58.068Z,42.23
2023-05-10T11:08:01.792Z,41.71
2023-05-10T11:11:09.203Z,40.05
2023-05-10T11:14:11.521Z,40.81
2023-05-10T11:17:28.124Z,44.37
2023-05-10T11:20:40.129Z,36.28
2023-05-10T11:23:59.137Z,39.66
2023-05-10T11:27:01.996Z,40.86
2023-05-10T11:30:07.650Z,41.04
2023-05-10T11:33:10.988Z,41.04
2023-05-10T11:36:27.572Z,39.16
2023-05-10T11:39:31.593Z,39.24
2023-05-10T11:42:34.632Z,39.31
2023-05-10T11:45:37.005Z,40.15
2023-05-10T11:48:43.960Z,36.65
2023-05-10T11:51:46.893Z,37.96
2023-05-10T11:54:54.462Z,36.54
2023-05-10T11:58:02.225Z,38.18
2023-05-10T12:01:06.714Z,38.37
2023-05-10T12:04:09.240Z,39.34
2023-05-10T12:07:11.741Z,40.45
2023-05-10T12:10:20.758Z,40.81
2023-05-10T12:13:26.269Z,40.47
2023-05-10T12:16:30.388Z,39.96
2023-05-10T12:19:40.233Z,39.81
2023-05-10T12:22:50.477Z,40.26
2023-05-10T12:25:55.005Z,40.14
2023-05-10T12:29:18.124Z,38.71
2023-05-10T12:32:20.531Z,38.42
2023-05-10T12:35:24.997Z,38.74
2023-05-10T12:38:34.176Z,38.58
2023-05-10T12:41:36.846Z,39.82
2023-05-10T12:44:47.503Z,39.17
2023-05-10T12:47:49.935Z,39.59
2023-05-10T12:50:52.253Z,39.80
2023-05-10T12:57:42.262Z,39.48
2023-05-10T13:00:44.952Z,39.54
2023-05-10T13:03:47.568Z,40.49
2023-05-10T13:06:49.919Z,41.03
2023-05-10T13:09:52.221Z,41.40
2023-05-10T13:12:54.458Z,40.84
2023-05-10T13:15:56.734Z,41.00
2023-05-10T13:18:59.668Z,41.21
2023-05-10T13:22:02.247Z,39.35
2023-05-10T13:25:04.904Z,38.56
2023-05-10T13:28:07.317Z,38.39
2023-05-10T13:31:09.906Z,38.50
2023-05-10T13:34:12.599Z,37.98
2023-05-10T13:37:15.317Z,37.66
2023-05-10T13:40:17.922Z,38.36
2023-05-10T13:43:33.089Z,38.43
2023-05-10T13:46:39.887Z,38.36
2023-05-10T13:49:42.368Z,38.19
2023-05-10T13:52:45.086Z,37.52
2023-05-10T13:55:48.286Z,37.06
2023-05-10T13:58:50.525Z,36.24
2023-05-10T14:01:53.210Z,36.30
2023-05-10T14:04:55.579Z,36.46
2023-05-10T14:07:58.202Z,36.92
2023-05-10T14:11:00.626Z,36.18
2023-05-10T14:14:03.589Z,36.74
2023-05-10T14:17:06.472Z,37.01
2023-05-10T14:20:09.587Z,37.74
2023-05-10T14:23:12.389Z,37.48
2023-05-10T14:26:15.705Z,37.95
2023-05-10T14:29:18.560Z,36.97
2023-05-10T14:32:21.051Z,37.72
2023-05-10T14:35:23.522Z,38.62
2023-05-10T14:38:26.012Z,38.88
2023-05-10T14:41:28.783Z,39.10
2023-05-10T14:44:31.692Z,39.24
2023-05-10T14:47:34.511Z,39.45
2023-05-10T14:50:37.526Z,39.37
2023-05-10T14:53:40.048Z,38.35
2023-05-10T14:56:42.844Z,38.81
2023-05-10T14:59:45.179Z,38.98
2023-05-10T15:02:49.725Z,38.58
2023-05-10T15:05:54.234Z,37.77
2023-05-10T15:08:56.701Z,37.71
2023-05-10T15:11:59.060Z,36.79
2023-05-10T15:15:01.355Z,37.36
2023-05-10T15:18:03.740Z,37.42
2023-05-10T15:21:06.056Z,37.13
2023-05-10T15:24:08.992Z,36.91
2023-05-10T15:27:11.221Z,37.15
2023-05-10T15:30:13.720Z,37.30
2023-05-10T15:33:16.096Z,37.10
2023-05-10T15:36:19.063Z,38.02
2023-05-10T15:39:21.342Z,38.49
2023-05-10T15:42:23.716Z,38.78
2023-05-10T15:45:26.102Z,39.08
2023-05-10T15:48:28.460Z,39.50
2023-05-10T15:51:30.827Z,39.39
2023-05-10T15:54:33.104Z,39.85
2023-05-10T15:57:36.747Z,40.55
2023-05-10T16:00:39.221Z,40.56
2023-05-10T16:03:41.775Z,40.65
2023-05-10T16:06:44.260Z,41.23
2023-05-10T16:09:46.692Z,41.34
2023-05-10T16:12:49.090Z,40.40
2023-05-10T16:15:51.425Z,40.91
2023-05-10T16:18:54.019Z,39.21
2023-05-10T16:21:56.519Z,38.45
2023-05-10T16:24:59.231Z,39.11
2023-05-10T16:28:01.766Z,39.45
2023-05-10T16:31:04.098Z,39.75
2023-05-10T16:34:06.330Z,40.11
2023-05-10T16:37:08.594Z,40.12
2023-05-10T16:40:11.317Z,40.23
2023-05-10T16:43:13.586Z,40.47
2023-05-10T16:46:16.309Z,40.81
2023-05-10T16:49:18.581Z,40.86
2023-05-10T16:52:20.998Z,41.20
2023-05-10T16:55:25.523Z,41.53
2023-05-10T16:58:28.664Z,41.91
2023-05-10T17:01:30.877Z,42.45
2023-05-10T17:04:33.144Z,42.85
2023-05-10T17:07:35.405Z,43.64
2023-05-10T17:10:41.002Z,43.48
2023-05-10T17:13:43.286Z,43.67
2023-05-10T17:16:45.677Z,44.08
2023-05-10T17:19:47.981Z,44.34
2023-05-10T17:22:50.440Z,44.48
2023-05-10T17:25:53.727Z,44.70
2023-05-10T17:28:56.135Z,44.55
2023-05-10T17:31:59.167Z,45.09
2023-05-10T17:35:03.787Z,44.99
2023-05-10T17:38:06.222Z,44.76
2023-05-10T17:41:08.495Z,44.95
2023-05-10T17:44:10.748Z,45.47
2023-05-10T17:47:13.049Z,45.59
2023-05-10T17:50:15.773Z,45.84
2023-05-10T17:53:18.400Z,45.59
2023-05-10T17:56:22.359Z,45.62
2023-05-10T17:59:24.688Z,45.79
2023-05-10T18:02:27.225Z,45.88
2023-05-10T18:05:29.862Z,46.25
2023-05-10T18:08:33.221Z,45.90
2023-05-10T18:11:36.303Z,45.98
2023-05-10T18:14:41.673Z,46.66
2023-05-10T18:17:44.253Z,46.20
2023-05-10T18:20:46.911Z,46.68
2023-05-10T18:23:49.181Z,46.45
2023-05-10T18:26:51.562Z,46.57
2023-05-10T18:29:54.012Z,47.10
2023-05-10T18:32:57.552Z,47.56
2023-05-10T18:36:00.925Z,47.78
2023-05-10T18:39:03.425Z,48.28
2023-05-10T18:42:06.189Z,47.93
2023-05-10T18:45:08.971Z,47.86
2023-05-10T18:48:11.401Z,48.05
2023-05-10T18:51:14.884Z,47.74
2023-05-10T18:54:17.358Z,48.15
2023-05-10T18:57:21.225Z,48.06
2023-05-10T19:00:24.057Z,47.78
2023-05-10T19:03:26.934Z,47.94
2023-05-10T19:06:29.311Z,48.07
2023-05-10T19:09:32.278Z,48.25
2023-05-10T19:12:34.985Z,48.11
2023-05-10T19:15:37.416Z,48.56
2023-05-10T19:18:40.134Z,48.63
2023-05-10T19:21:42.511Z,48.83
2023-05-10T19:24:46.321Z,48.62
2023-05-10T19:27:48.968Z,49.39
2023-05-10T19:30:51.293Z,49.61
2023-05-10T19:33:54.004Z,49.64
2023-05-10T19:36:58.854Z,49.49
2023-05-10T19:40:01.335Z,50.06
2023-05-10T19:43:04.273Z,49.79
2023-05-10T19:46:06.810Z,49.64
2023-05-10T19:49:09.196Z,50.19
2023-05-10T19:52:12.370Z,49.52
2023-05-10T19:55:25.187Z,48.77
2023-05-10T19:58:28.934Z,49.58
2023-05-10T20:01:32.968Z,49.77
2023-05-10T20:04:35.471Z,48.99
2023-05-10T20:07:37.681Z,49.04
2023-05-10T20:10:40.068Z,48.72
2023-05-10T20:13:42.371Z,48.30
2023-05-10T20:16:44.763Z,49.06
2023-05-10T20:19:47.272Z,49.21
2023-05-10T20:22:50.175Z,49.47
2023-05-10T20:25:54.987Z,48.60
2023-05-10T20:28:57.542Z,48.57
2023-05-10T20:32:00.020Z,49.99
2023-05-10T20:35:02.818Z,50.88
2023-05-10T20:38:05.844Z,51.71
2023-05-10T20:41:08.197Z,52.84
2023-05-10T20:44:10.743Z,52.25
2023-05-10T20:47:14.974Z,52.76
2023-05-10T20:50:17.764Z,52.94
2023-05-10T20:53:20.347Z,53.54
2023-05-10T20:56:23.135Z,53.01
2023-05-10T20:59:25.508Z,53.15
2023-05-10T21:02:27.845Z,54.17
2023-05-10T21:05:30.798Z,54.28
2023-05-10T21:08:33.274Z,53.92
2023-05-10T21:11:36.212Z,54.12
2023-05-10T21:14:38.558Z,53.95
2023-05-10T21:17:40.920Z,53.80
2023-05-10T21:20:43.237Z,53.50
2023-05-10T21:23:48.765Z,53.25
2023-05-10T21:26:51.116Z,53.94
2023-05-10T21:29:53.656Z,52.96
2023-05-10T21:32:59.799Z,54.15
2023-05-10T21:36:02.336Z,53.04
2023-05-10T21:39:04.580Z,51.48
2023-05-10T21:42:07.012Z,51.64
2023-05-10T21:45:09.551Z,52.09
2023-05-10T21:48:12.336Z,51.49
2023-05-10T21:51:14.858Z,51.44
2023-05-10T21:54:17.125Z,50.69
2023-05-10T21:57:19.759Z,50.65
2023-05-10T22:00:22.029Z,51.25
2023-05-10T22:03:24.465Z,50.62
2023-05-10T22:06:26.762Z,50.70
2023-05-10T22:09:29.756Z,51.94
2023-05-10T22:12:32.013Z,52.08
2023-05-10T22:15:36.332Z,52.82
2023-05-10T22:18:39.018Z,53.06
2023-05-10T22:21:41.469Z,52.84
2023-05-10T22:24:45.568Z,53.32
2023-05-10T22:27:47.947Z,53.88
2023-05-10T22:30:50.266Z,54.49
2023-05-10T22:33:52.563Z,54.45
2023-05-10T22:36:54.855Z,53.87
2023-05-10T22:39:57.185Z,54.00
2023-05-10T22:42:59.471Z,54.51
2023-05-10T22:46:04.843Z,53.88
2023-05-10T22:49:07.182Z,53.90
2023-05-10T22:52:09.795Z,54.49
2023-05-10T22:55:12.139Z,54.53
2023-05-10T22:58:14.467Z,54.78
2023-05-10T23:01:17.191Z,55.01
2023-05-10T23:04:19.849Z,55.57
2023-05-10T23:07:22.729Z,55.64
2023-05-10T23:10:25.139Z,56.44
2023-05-10T23:13:27.664Z,56.16
2023-05-10T23:16:30.655Z,54.97
2023-05-10T23:19:32.997Z,48.67
2023-05-10T23:22:35.241Z,48.53
2023-05-10T23:25:38.009Z,48.97
2023-05-10T23:28:40.326Z,50.74
2023-05-10T23:31:45.740Z,50.47
2023-05-10T23:34:48.024Z,48.75
2023-05-10T23:37:50.408Z,48.72
2023-05-10T23:40:52.693Z,48.45
2023-05-10T23:43:54.921Z,48.47
2023-05-10T23:46:57.192Z,48.68
2023-05-10T23:49:59.567Z,49.14
2023-05-10T23:53:04.346Z,48.58
2023-05-10T23:56:07.908Z,49.82
2023-05-10T23:59:10.417Z,49.48
